Time;durP1;ratioP1;P1;durP2;ratioP2;P2;SDS_P1;SDS_P2;PMS_P1;PMS_P2;Temp;Humidity;BMP_temperature;BMP_pressure;BME280_temperature;BME280_humidity;BME280_pressure;Samples;Min_cycle;Max_cycle;Signal;HPM_P1;HPM_P2
2024/02/27 00:02:12;;;;;;;26.10;15.82;;;6.70;99.90;;;;;;5027440;28;20042;-46
2024/02/27 00:04:42;;;;;;;23.83;14.75;;;6.60;99.90;;;;;;5026969;28;20072;-48
2024/02/27 00:07:11;;;;;;;24.50;15.23;;;6.70;99.90;;;;;;5026013;28;20127;-51
2024/02/27 00:09:45;;;;;;;26.50;15.85;;;6.70;99.90;;;;;;5025153;28;20092;-50
2024/02/27 00:12:12;;;;;;;25.85;16.38;;;6.70;99.90;;;;;;5026811;28;20166;-46
2024/02/27 00:14:39;;;;;;;28.05;16.92;;;6.70;99.90;;;;;;5026601;28;20048;-50
2024/02/27 00:17:06;;;;;;;25.88;16.27;;;6.70;99.90;;;;;;5028164;28;20115;-46
2024/02/27 00:19:33;;;;;;;30.55;17.80;;;6.70;99.90;;;;;;5027062;28;20583;-46
2024/02/27 00:22:01;;;;;;;26.88;16.90;;;6.70;99.90;;;;;;5026544;28;20080;-43
2024/02/27 00:24:28;;;;;;;28.63;18.05;;;6.70;99.90;;;;;;5026487;28;20628;-50
2024/02/27 00:26:55;;;;;;;28.15;17.13;;;6.70;99.90;;;;;;5024317;28;20129;-49
2024/02/27 00:29:22;;;;;;;26.58;17.70;;;6.70;99.90;;;;;;5027502;28;20045;-53
2024/02/27 00:31:49;;;;;;;28.20;17.15;;;6.70;99.90;;;;;;5026623;28;20061;-50
2024/02/27 00:34:16;;;;;;;27.70;17.58;;;6.70;99.90;;;;;;5026127;28;20069;-50
2024/02/27 00:36:43;;;;;;;30.58;16.73;;;6.70;99.90;;;;;;5026238;28;20052;-49
2024/02/27 00:39:11;;;;;;;26.77;16.48;;;6.70;99.90;;;;;;5026011;28;20048;-47
2024/02/27 00:41:46;;;;;;;27.30;17.10;;;6.80;99.90;;;;;;5022386;28;20441;-48
2024/02/27 00:44:13;;;;;;;29.13;17.30;;;6.70;99.90;;;;;;5026244;28;20072;-48
2024/02/27 00:46:42;;;;;;;25.55;16.50;;;6.70;99.90;;;;;;5027566;28;20049;-48
2024/02/27 00:49:09;;;;;;;26.48;16.27;;;6.70;99.90;;;;;;5027335;28;20533;-51
2024/02/27 00:51:36;;;;;;;25.33;15.65;;;6.70;99.90;;;;;;5025522;28;20327;-47
2024/02/27 00:54:03;;;;;;;25.30;15.73;;;6.70;99.90;;;;;;5026694;28;20048;-47
2024/02/27 00:56:30;;;;;;;27.00;16.02;;;6.70;99.90;;;;;;5025740;28;20161;-44
2024/02/27 00:58:57;;;;;;;23.02;15.30;;;6.60;99.90;;;;;;5025831;28;20129;-48
2024/02/27 01:01:24;;;;;;;25.65;15.63;;;6.60;99.90;;;;;;5026056;28;20041;-51
2024/02/27 01:03:51;;;;;;;22.95;15.07;;;6.60;99.90;;;;;;5027312;28;20069;-49
2024/02/27 01:06:18;;;;;;;26.20;16.05;;;6.60;99.90;;;;;;5028386;28;20077;-46
2024/02/27 01:08:45;;;;;;;24.63;15.95;;;6.60;99.90;;;;;;5031033;28;20068;-51
2024/02/27 01:11:12;;;;;;;23.75;15.63;;;6.60;99.90;;;;;;5028925;28;20361;-46
2024/02/27 01:13:39;;;;;;;25.10;15.65;;;6.60;99.90;;;;;;5029740;28;20096;-50
2024/02/27 01:16:06;;;;;;;25.52;16.25;;;6.50;99.90;;;;;;5031184;28;20522;-47
2024/02/27 01:18:33;;;;;;;26.60;16.30;;;6.50;99.90;;;;;;5029936;28;20510;-45
2024/02/27 01:21:02;;;;;;;25.48;16.35;;;6.50;99.90;;;;;;5029501;28;20034;-44
2024/02/27 01:23:29;;;;;;;24.90;15.70;;;6.50;99.90;;;;;;5029612;28;20533;-46
2024/02/27 01:25:56;;;;;;;25.33;16.13;;;6.50;99.90;;;;;;5029632;28;20053;-44
2024/02/27 01:28:23;;;;;;;27.90;17.25;;;6.50;99.90;;;;;;5027733;28;20046;-45
2024/02/27 01:30:50;;;;;;;27.55;16.88;;;6.50;99.90;;;;;;5030335;28;20049;-50
2024/02/27 01:33:17;;;;;;;26.08;16.40;;;6.50;99.90;;;;;;5032385;28;20049;-44
2024/02/27 01:35:44;;;;;;;25.85;16.40;;;6.50;99.90;;;;;;5029914;28;20081;-49
2024/02/27 01:38:11;;;;;;;27.73;16.92;;;6.50;99.90;;;;;;5029718;28;20276;-48
2024/02/27 01:40:38;;;;;;;23.00;15.30;;;6.50;99.90;;;;;;5031109;28;20041;-48
2024/02/27 01:43:21;;;;;;;24.13;15.68;;;6.50;99.90;;;;;;5029795;28;20091;-44
2024/02/27 01:45:59;;;;;;;26.40;16.77;;;6.50;99.90;;;;;;5025407;28;20428;-45
2024/02/27 01:48:27;;;;;;;26.55;16.25;;;6.50;99.90;;;;;;5033758;28;20080;-50
2024/02/27 01:50:54;;;;;;;29.13;16.40;;;6.50;99.90;;;;;;5030857;28;20430;-49
2024/02/27 01:53:22;;;;;;;25.50;17.30;;;6.40;99.90;;;;;;5036455;28;20041;-48
2024/02/27 01:55:49;;;;;;;28.98;18.50;;;6.50;99.90;;;;;;5031573;28;20053;-47
2024/02/27 01:58:17;;;;;;;26.65;17.23;;;6.50;99.90;;;;;;5032176;28;20588;-45
2024/02/27 02:00:45;;;;;;;27.52;16.08;;;6.40;99.90;;;;;;5032919;28;20063;-42
2024/02/27 02:03:13;;;;;;;29.08;16.67;;;6.40;99.90;;;;;;5030454;28;20187;-47
2024/02/27 02:05:41;;;;;;;28.45;16.73;;;6.40;99.90;;;;;;5028944;28;20042;-47
2024/02/27 02:08:08;;;;;;;28.35;16.55;;;6.40;99.90;;;;;;5029359;28;20045;-47
2024/02/27 02:10:35;;;;;;;25.67;15.73;;;6.50;99.90;;;;;;5028681;28;20150;-47
2024/02/27 02:13:02;;;;;;;23.55;15.35;;;6.50;99.90;;;;;;5028162;28;20371;-47
2024/02/27 02:15:29;;;;;;;26.58;16.02;;;6.50;99.90;;;;;;5030760;28;20065;-47
2024/02/27 02:17:56;;;;;;;28.38;16.33;;;6.50;99.90;;;;;;5028814;28;20045;-52
2024/02/27 02:20:23;;;;;;;25.88;15.43;;;6.50;99.90;;;;;;5033634;28;20068;-51
2024/02/27 02:22:50;;;;;;;27.40;17.23;;;6.50;99.90;;;;;;5030458;28;20041;-51
2024/02/27 02:25:20;;;;;;;28.42;16.92;;;6.40;99.90;;;;;;5022487;28;20052;-49
2024/02/27 02:27:50;;;;;;;24.50;15.63;;;6.50;99.90;;;;;;5020126;28;20041;-50
2024/02/27 02:30:17;;;;;;;25.33;16.08;;;6.50;99.90;;;;;;5025385;28;20061;-50
2024/02/27 02:32:48;;;;;;;27.20;16.60;;;6.50;99.90;;;;;;5027538;28;20131;-52
2024/02/27 02:35:16;;;;;;;26.60;16.60;;;6.40;99.90;;;;;;5025484;28;20494;-46
2024/02/27 02:37:48;;;;;;;26.45;16.77;;;6.40;99.90;;;;;;5026787;28;20197;-47
2024/02/27 02:40:16;;;;;;;30.70;17.70;;;6.40;99.90;;;;;;5026066;28;20053;-46
2024/02/27 02:42:44;;;;;;;25.50;17.00;;;6.40;99.90;;;;;;5030215;28;20061;-44
2024/02/27 02:45:12;;;;;;;26.15;15.82;;;6.50;99.90;;;;;;5026711;28;20149;-49
2024/02/27 02:47:39;;;;;;;29.50;16.38;;;6.50;99.90;;;;;;5024632;28;20042;-47
2024/02/27 02:50:07;;;;;;;26.40;16.02;;;6.40;99.90;;;;;;5025800;28;20041;-44
2024/02/27 02:52:35;;;;;;;29.88;17.52;;;6.40;99.90;;;;;;5027610;28;20049;-51
2024/02/27 02:55:02;;;;;;;24.10;15.98;;;6.40;99.90;;;;;;5026808;28;20136;-53
2024/02/27 03:01:36;;;;;;;25.80;15.93;;;6.40;99.90;;;;;;5028104;28;20091;-48
2024/02/27 03:04:03;;;;;;;25.88;16.73;;;6.40;99.90;;;;;;5027017;28;20045;-45
2024/02/27 03:06:30;;;;;;;25.60;16.23;;;6.40;99.90;;;;;;5028026;28;20442;-50
2024/02/27 03:08:57;;;;;;;24.90;16.05;;;6.40;99.90;;;;;;5027793;28;20290;-45
2024/02/27 03:11:24;;;;;;;27.58;17.33;;;6.40;99.90;;;;;;5027773;28;20079;-46
2024/02/27 03:13:51;;;;;;;25.38;16.17;;;6.40;99.90;;;;;;5026658;28;20511;-44
2024/02/27 03:16:18;;;;;;;24.08;15.82;;;6.40;99.90;;;;;;5024215;28;20487;-47
2024/02/27 03:18:45;;;;;;;28.58;16.40;;;6.40;99.90;;;;;;5025617;28;20494;-47
2024/02/27 03:21:12;;;;;;;23.67;15.40;;;6.50;99.90;;;;;;5025083;28;20144;-46
2024/02/27 03:23:40;;;;;;;23.92;15.45;;;6.50;99.90;;;;;;5028003;28;20046;-50
2024/02/27 03:26:07;;;;;;;23.90;15.57;;;6.50;99.90;;;;;;5027697;28;20122;-51
2024/02/27 03:28:34;;;;;;;24.83;15.10;;;6.50;99.90;;;;;;5026351;28;20060;-48
2024/02/27 03:31:02;;;;;;;23.63;14.95;;;6.50;99.90;;;;;;5027305;28;20049;-47
2024/02/27 03:33:29;;;;;;;23.58;15.32;;;6.50;99.90;;;;;;5026178;28;20041;-44
2024/02/27 03:35:56;;;;;;;22.88;15.00;;;6.60;99.90;;;;;;5024243;28;20124;-51
2024/02/27 03:38:23;;;;;;;22.25;14.40;;;6.50;99.90;;;;;;5027028;28;20054;-46
2024/02/27 03:40:50;;;;;;;22.63;14.73;;;6.60;99.90;;;;;;5026678;28;20124;-49
2024/02/27 03:43:17;;;;;;;23.83;14.80;;;6.50;99.90;;;;;;5026793;28;20048;-49
2024/02/27 03:45:44;;;;;;;22.48;14.35;;;6.60;99.90;;;;;;5030552;28;20056;-50
2024/02/27 03:48:12;;;;;;;20.95;13.60;;;6.60;99.90;;;;;;5027214;28;20048;-50
2024/02/27 03:50:39;;;;;;;23.92;15.50;;;6.60;99.90;;;;;;5024955;28;20048;-49
2024/02/27 03:53:06;;;;;;;20.65;13.90;;;6.60;99.90;;;;;;5031144;28;20109;-45
2024/02/27 03:55:33;;;;;;;23.35;14.55;;;6.60;99.90;;;;;;5026179;28;20053;-44
2024/02/27 03:58:00;;;;;;;25.42;16.02;;;6.60;99.90;;;;;;5025720;28;20081;-54
2024/02/27 04:00:27;;;;;;;24.48;15.52;;;6.50;99.90;;;;;;5024945;28;20048;-46
2024/02/27 04:02:55;;;;;;;22.27;14.52;;;6.40;99.90;;;;;;5028084;28;20541;-50
2024/02/27 04:05:22;;;;;;;24.52;15.20;;;6.40;99.90;;;;;;5029055;28;20061;-50
2024/02/27 04:07:49;;;;;;;24.83;15.30;;;6.30;99.90;;;;;;5028071;28;20060;-43
2024/02/27 04:10:16;;;;;;;24.30;15.05;;;6.20;99.90;;;;;;5025836;28;20049;-46
2024/02/27 04:12:43;;;;;;;25.38;15.70;;;6.20;99.90;;;;;;5025040;28;20510;-48
2024/02/27 04:15:10;;;;;;;24.10;14.82;;;6.20;99.90;;;;;;5028026;28;20047;-50
2024/02/27 04:17:37;;;;;;;23.63;15.32;;;6.10;99.90;;;;;;5025819;28;20052;-50
2024/02/27 04:20:09;;;;;;;25.63;16.05;;;6.10;99.90;;;;;;5024154;28;20046;-50
2024/02/27 04:22:36;;;;;;;23.88;15.48;;;6.10;99.90;;;;;;5025424;28;20462;-47
2024/02/27 04:25:03;;;;;;;26.65;16.05;;;6.10;99.90;;;;;;5023379;28;20529;-47
2024/02/27 04:27:30;;;;;;;30.05;18.00;;;6.10;99.90;;;;;;5024018;28;20069;-52
2024/02/27 04:29:57;;;;;;;23.83;15.23;;;6.10;99.90;;;;;;5026118;28;20072;-46
2024/02/27 04:32:24;;;;;;;25.35;15.50;;;6.10;99.90;;;;;;5025270;28;20107;-44
2024/02/27 04:34:51;;;;;;;28.42;17.38;;;6.10;99.90;;;;;;5025095;28;20083;-49
2024/02/27 04:37:18;;;;;;;25.77;16.23;;;6.10;99.90;;;;;;5025258;28;20135;-52
2024/02/27 04:39:45;;;;;;;26.20;16.33;;;6.10;99.90;;;;;;5024279;28;20041;-45
2024/02/27 04:42:12;;;;;;;24.77;15.40;;;6.20;99.90;;;;;;5030078;28;20049;-46
2024/02/27 04:44:39;;;;;;;25.67;16.20;;;6.20;99.90;;;;;;5029552;28;20053;-47
2024/02/27 04:47:06;;;;;;;24.83;16.15;;;6.20;99.90;;;;;;5027311;28;20040;-47
2024/02/27 04:49:33;;;;;;;27.55;16.58;;;6.10;99.90;;;;;;5025753;28;20603;-52
2024/02/27 04:52:01;;;;;;;27.10;16.73;;;6.10;99.90;;;;;;5021486;28;20506;-46
2024/02/27 04:54:27;;;;;;;29.10;17.13;;;6.10;99.90;;;;;;5029661;28;20069;-52
2024/02/27 04:56:55;;;;;;;25.02;16.33;;;6.20;99.90;;;;;;5024892;28;20426;-50
2024/02/27 04:59:22;;;;;;;24.90;16.33;;;6.20;99.90;;;;;;5023945;28;20045;-51
2024/02/27 05:01:49;;;;;;;28.77;17.38;;;6.20;99.90;;;;;;5025221;28;20049;-48
2024/02/27 05:04:20;;;;;;;29.60;17.95;;;6.20;99.90;;;;;;5027664;28;20414;-46
2024/02/27 05:06:47;;;;;;;30.70;19.52;;;6.20;99.90;;;;;;5029231;28;20045;-50
2024/02/27 05:09:14;;;;;;;31.88;20.42;;;6.20;99.90;;;;;;5024341;28;20057;-45
2024/02/27 05:11:44;;;;;;;32.63;19.40;;;6.20;99.90;;;;;;5025746;28;20045;-49
2024/02/27 05:14:10;;;;;;;32.80;19.67;;;6.20;99.90;;;;;;5025181;28;20525;-49
2024/02/27 05:16:38;;;;;;;32.30;20.30;;;6.20;99.90;;;;;;5026745;28;20156;-50
2024/02/27 05:19:04;;;;;;;32.72;20.70;;;6.10;99.90;;;;;;5025552;28;20429;-51
2024/02/27 05:21:31;;;;;;;31.60;19.50;;;6.10;99.90;;;;;;5029350;28;20128;-51
2024/02/27 05:23:59;;;;;;;31.52;19.52;;;6.10;99.90;;;;;;5028288;28;20068;-53
2024/02/27 05:26:26;;;;;;;33.55;19.77;;;6.10;99.90;;;;;;5026091;28;20042;-48
2024/02/27 05:28:53;;;;;;;31.92;19.88;;;6.10;99.90;;;;;;5028773;28;20594;-47
2024/02/27 05:31:25;;;;;;;34.03;20.17;;;6.00;99.90;;;;;;5020761;28;20045;-48
2024/02/27 05:33:56;;;;;;;33.90;19.77;;;6.00;99.90;;;;;;5025841;28;20145;-49
2024/02/27 05:36:24;;;;;;;40.73;20.37;;;6.00;99.90;;;;;;5025564;28;20510;-44
2024/02/27 05:38:53;;;;;;;31.73;19.08;;;6.00;99.90;;;;;;5024943;28;20062;-47
2024/02/27 05:41:21;;;;;;;30.05;18.05;;;6.00;99.90;;;;;;5026601;28;20095;-43
2024/02/27 05:43:49;;;;;;;28.85;17.70;;;6.00;99.90;;;;;;5023781;28;20048;-50
2024/02/27 05:46:15;;;;;;;30.17;18.23;;;6.00;99.90;;;;;;5024210;28;20167;-49
2024/02/27 05:48:43;;;;;;;27.85;16.65;;;6.00;99.90;;;;;;5028627;28;20044;-50
2024/02/27 05:51:10;;;;;;;30.45;17.83;;;6.00;99.90;;;;;;5024954;28;20061;-50
2024/02/27 05:53:37;;;;;;;27.88;16.80;;;6.10;99.90;;;;;;5028684;28;20427;-45
2024/02/27 05:56:04;;;;;;;31.73;17.65;;;6.10;99.90;;;;;;5024463;28;20044;-50
2024/02/27 05:58:31;;;;;;;27.98;16.40;;;6.10;99.90;;;;;;5025841;28;20057;-51
2024/02/27 06:00:58;;;;;;;26.33;17.20;;;6.10;99.90;;;;;;5023449;28;20046;-49
2024/02/27 06:03:25;;;;;;;25.70;14.77;;;6.10;99.90;;;;;;5029398;28;20042;-49
2024/02/27 06:05:53;;;;;;;25.55;16.15;;;6.20;99.90;;;;;;5027319;28;20045;-52
2024/02/27 06:08:21;;;;;;;24.23;15.85;;;6.20;99.90;;;;;;5025273;28;20045;-52
2024/02/27 06:10:48;;;;;;;28.17;17.20;;;6.20;99.90;;;;;;5028293;28;20141;-47
2024/02/27 06:13:15;;;;;;;30.38;19.10;;;6.30;99.90;;;;;;5030357;28;20072;-48
2024/02/27 06:15:44;;;;;;;26.38;16.25;;;6.30;99.90;;;;;;5031026;28;20088;-48
2024/02/27 06:18:14;;;;;;;27.73;16.13;;;6.30;99.90;;;;;;5027919;28;20116;-45
2024/02/27 06:23:28;;;;;;;32.35;16.63;;;6.30;99.90;;;;;;5027134;28;20029;-48
2024/02/27 06:25:55;;;;;;;27.42;16.92;;;6.30;99.90;;;;;;5028894;28;20071;-45
2024/02/27 06:28:23;;;;;;;27.88;16.10;;;6.30;99.90;;;;;;5028211;28;20056;-50
2024/02/27 06:30:50;;;;;;;25.38;16.25;;;6.30;99.90;;;;;;5026491;28;20128;-47
2024/02/27 06:33:17;;;;;;;23.60;14.95;;;6.30;99.90;;;;;;5030956;28;21013;-44
2024/02/27 06:35:44;;;;;;;27.50;15.80;;;6.30;99.90;;;;;;5030888;28;20596;-46
2024/02/27 06:38:11;;;;;;;27.20;15.63;;;6.40;99.90;;;;;;5027659;28;20049;-47
2024/02/27 06:40:39;;;;;;;29.90;18.25;;;6.40;99.90;;;;;;5028531;28;20060;-46
2024/02/27 06:43:06;;;;;;;31.65;17.77;;;6.40;99.90;;;;;;5023442;28;20041;-50
2024/02/27 06:45:33;;;;;;;32.17;18.80;;;6.40;99.90;;;;;;5025941;28;20059;-51
2024/02/27 06:48:00;;;;;;;33.25;18.77;;;6.50;99.90;;;;;;5025433;28;20075;-50
2024/02/27 06:50:30;;;;;;;36.15;21.17;;;6.60;99.90;;;;;;5025164;28;20044;-49
2024/02/27 06:52:59;;;;;;;36.42;19.98;;;6.60;99.90;;;;;;5035727;28;20095;-50
2024/02/27 06:55:26;;;;;;;27.48;17.38;;;6.70;99.90;;;;;;5023016;28;20098;-49
2024/02/27 06:57:52;;;;;;;32.83;18.52;;;6.80;99.90;;;;;;5026724;28;20041;-49
2024/02/27 07:00:20;;;;;;;29.38;17.42;;;6.90;99.90;;;;;;5025358;28;20087;-50
2024/02/27 07:02:48;;;;;;;31.45;18.90;;;6.90;99.90;;;;;;5026643;28;20049;-48
2024/02/27 07:05:16;;;;;;;35.88;19.35;;;6.90;99.90;;;;;;5025116;28;20045;-54
2024/02/27 07:07:44;;;;;;;29.65;17.23;;;6.90;99.90;;;;;;5028623;28;20498;-47
2024/02/27 07:10:13;;;;;;;39.08;19.73;;;7.00;99.90;;;;;;5029978;28;20117;-47
2024/02/27 07:12:41;;;;;;;39.53;19.90;;;7.10;99.90;;;;;;5032566;28;20092;-48
2024/02/27 07:15:09;;;;;;;32.38;19.20;;;7.10;99.90;;;;;;5032283;28;20586;-46
2024/02/27 07:17:36;;;;;;;40.00;18.85;;;7.20;99.90;;;;;;5029172;28;20165;-46
2024/02/27 07:20:07;;;;;;;40.75;21.05;;;7.20;99.90;;;;;;5027476;28;20107;-46
2024/02/27 07:22:34;;;;;;;36.17;19.27;;;7.40;99.90;;;;;;5028043;28;20068;-49
2024/02/27 07:25:01;;;;;;;36.42;19.38;;;7.40;99.90;;;;;;5009800;28;20121;-44
2024/02/27 07:27:28;;;;;;;30.50;19.15;;;7.50;99.90;;;;;;5026748;28;20049;-47
2024/02/27 07:29:55;;;;;;;33.95;18.83;;;7.60;99.90;;;;;;5030251;28;20050;-41
2024/02/27 07:32:23;;;;;;;30.35;19.15;;;7.70;99.90;;;;;;5032120;28;20050;-47
2024/02/27 07:34:50;;;;;;;31.63;17.70;;;7.80;99.90;;;;;;5033868;28;20073;-43
2024/02/27 07:37:18;;;;;;;29.30;16.90;;;8.00;99.90;;;;;;5031458;28;20045;-46
2024/02/27 07:39:45;;;;;;;27.33;17.58;;;8.10;99.90;;;;;;5034047;28;20494;-45
2024/02/27 07:42:12;;;;;;;29.73;17.70;;;8.30;99.90;;;;;;5035931;28;20127;-50
2024/02/27 07:44:39;;;;;;;29.30;17.90;;;8.50;99.90;;;;;;5033226;28;20053;-50
2024/02/27 07:47:06;;;;;;;34.65;18.23;;;8.70;99.90;;;;;;5035799;28;20080;-45
2024/02/27 07:49:33;;;;;;;32.30;18.73;;;8.70;99.90;;;;;;5032412;28;20054;-50
2024/02/27 07:52:00;;;;;;;30.25;18.25;;;8.80;99.90;;;;;;5031518;28;20063;-44
2024/02/27 07:54:27;;;;;;;28.30;16.70;;;9.00;99.90;;;;;;5034349;28;20224;-45
2024/02/27 07:56:54;;;;;;;29.48;18.25;;;9.10;99.90;;;;;;5024355;28;20100;-47
2024/02/27 07:59:21;;;;;;;29.02;18.70;;;9.30;99.90;;;;;;5028121;28;20041;-44
2024/02/27 08:01:48;;;;;;;26.60;16.60;;;9.50;99.90;;;;;;5028104;28;20083;-43
2024/02/27 08:04:15;;;;;;;29.83;18.33;;;9.70;99.90;;;;;;5027028;28;20057;-47
2024/02/27 08:06:42;;;;;;;27.60;17.23;;;10.10;99.90;;;;;;5027879;28;20392;-45
2024/02/27 08:09:10;;;;;;;25.25;17.00;;;10.30;99.90;;;;;;5029151;28;20099;-44
2024/02/27 08:11:37;;;;;;;28.27;17.67;;;10.50;99.90;;;;;;5029175;28;20049;-45
2024/02/27 08:14:04;;;;;;;29.10;17.10;;;10.70;99.90;;;;;;5031224;28;20093;-46
2024/02/27 08:16:31;;;;;;;26.05;17.02;;;10.80;99.90;;;;;;5040408;28;20095;-44
2024/02/27 08:18:59;;;;;;;24.13;15.98;;;10.90;99.90;;;;;;5034825;28;20494;-45
2024/02/27 08:21:26;;;;;;;33.60;18.23;;;10.90;99.90;;;;;;5027292;28;20037;-41
2024/02/27 08:23:53;;;;;;;25.75;16.65;;;11.10;99.90;;;;;;5029441;28;20107;-46
2024/02/27 08:26:20;;;;;;;25.17;16.20;;;11.00;99.90;;;;;;5029531;28;20298;-42
2024/02/27 08:28:47;;;;;;;23.25;15.43;;;10.90;99.90;;;;;;5029637;28;20119;-44
2024/02/27 08:31:14;;;;;;;25.20;17.13;;;10.90;99.90;;;;;;5025681;28;20509;-46
2024/02/27 08:33:41;;;;;;;24.10;16.38;;;11.00;99.90;;;;;;5029388;28;20220;-43
2024/02/27 08:36:08;;;;;;;24.77;16.17;;;11.10;99.90;;;;;;5029572;28;20036;-42
2024/02/27 08:38:36;;;;;;;21.98;16.48;;;11.10;99.90;;;;;;5031420;28;20045;-44
2024/02/27 08:41:03;;;;;;;26.75;17.23;;;11.00;99.90;;;;;;5029328;28;20053;-46
2024/02/27 08:43:30;;;;;;;23.35;15.43;;;11.00;99.90;;;;;;5027134;28;20664;-45
2024/02/27 08:45:59;;;;;;;24.15;15.98;;;11.10;99.90;;;;;;5026825;28;20038;-42
2024/02/27 08:48:26;;;;;;;24.60;15.23;;;11.10;99.90;;;;;;5030547;28;20046;-44
2024/02/27 08:50:53;;;;;;;22.70;13.95;;;11.20;99.90;;;;;;5025559;28;20041;-44
2024/02/27 08:53:22;;;;;;;19.88;13.55;;;11.40;99.90;;;;;;5031110;28;20385;-47
2024/02/27 08:55:48;;;;;;;17.98;13.43;;;11.50;99.90;;;;;;5028042;28;20061;-43
2024/02/27 08:58:15;;;;;;;18.20;12.90;;;11.60;99.90;;;;;;5026745;28;20498;-43
2024/02/27 09:00:42;;;;;;;16.70;12.57;;;11.70;99.90;;;;;;5027921;28;20049;-44
2024/02/27 09:03:10;;;;;;;21.13;12.77;;;11.80;99.90;;;;;;5027063;28;20072;-44
2024/02/27 09:05:37;;;;;;;18.15;12.57;;;11.80;99.90;;;;;;5032583;28;20582;-45
2024/02/27 09:08:04;;;;;;;17.33;12.27;;;11.90;99.90;;;;;;5032761;28;20072;-46
2024/02/27 09:10:31;;;;;;;17.73;11.80;;;12.00;99.90;;;;;;5031743;28;20284;-45
2024/02/27 09:12:58;;;;;;;20.35;12.38;;;12.20;99.90;;;;;;5032488;28;20097;-46
2024/02/27 09:15:25;;;;;;;16.55;12.35;;;12.20;99.90;;;;;;5017699;28;20053;-44
2024/02/27 09:17:52;;;;;;;16.05;11.75;;;12.30;99.90;;;;;;5031465;28;20073;-46
2024/02/27 09:20:19;;;;;;;17.30;12.00;;;12.20;99.90;;;;;;5032439;28;20115;-44
2024/02/27 09:22:46;;;;;;;15.55;11.27;;;12.20;99.90;;;;;;5028956;28;20088;-47
2024/02/27 09:25:13;;;;;;;16.15;11.82;;;12.00;99.90;;;;;;5026760;28;20038;-42
2024/02/27 09:27:40;;;;;;;19.75;13.73;;;12.10;99.90;;;;;;5027957;28;20081;-44
2024/02/27 09:30:07;;;;;;;18.60;12.82;;;12.10;99.90;;;;;;5026885;28;20061;-44
2024/02/27 09:32:34;;;;;;;18.73;12.73;;;12.10;99.90;;;;;;5024670;28;20430;-44
2024/02/27 09:35:02;;;;;;;21.77;14.30;;;12.00;99.90;;;;;;5031035;28;20144;-48
2024/02/27 09:37:30;;;;;;;18.17;12.75;;;11.90;99.90;;;;;;5030277;28;20052;-47
2024/02/27 09:39:57;;;;;;;19.60;12.77;;;11.80;99.90;;;;;;5033886;28;20072;-43
2024/02/27 09:42:29;;;;;;;15.93;12.10;;;11.70;99.90;;;;;;5018184;28;20029;-44
2024/02/27 09:45:05;;;;;;;20.15;12.77;;;11.70;99.90;;;;;;5027250;28;20057;-47
2024/02/27 09:47:36;;;;;;;;;;;11.70;99.90;;;;;;5017779;28;20095;-45
2024/02/27 09:50:05;;;;;;;17.02;13.20;;;11.80;99.90;;;;;;5030363;28;20167;-43
2024/02/27 09:52:33;;;;;;;18.77;13.18;;;11.80;99.90;;;;;;5033396;28;20085;-47
2024/02/27 09:55:01;;;;;;;20.77;14.43;;;11.70;99.90;;;;;;5035283;28;20080;-47
2024/02/27 09:57:29;;;;;;;23.13;16.52;;;11.80;99.90;;;;;;5034747;28;20082;-47
2024/02/27 09:59:56;;;;;;;19.10;13.13;;;11.90;99.90;;;;;;5035035;28;20045;-49
2024/02/27 10:02:24;;;;;;;19.60;14.45;;;11.90;99.90;;;;;;5031228;28;20581;-44
2024/02/27 10:04:53;;;;;;;19.92;13.93;;;12.00;99.90;;;;;;5030736;28;20044;-43
2024/02/27 10:07:21;;;;;;;18.17;12.73;;;12.00;99.90;;;;;;5030732;28;20111;-48
2024/02/27 10:09:48;;;;;;;19.55;13.45;;;12.00;99.90;;;;;;5029470;28;20042;-48
2024/02/27 10:12:16;;;;;;;18.90;12.65;;;11.90;99.90;;;;;;5030208;28;20056;-45
2024/02/27 10:14:43;;;;;;;17.80;12.23;;;11.90;99.90;;;;;;5024747;28;20111;-47
2024/02/27 10:17:10;;;;;;;19.95;13.27;;;11.80;99.90;;;;;;5031279;28;20448;-42
2024/02/27 10:19:37;;;;;;;22.67;14.02;;;11.70;99.90;;;;;;5030650;28;20041;-44
2024/02/27 10:22:06;;;;;;;17.27;12.40;;;11.80;99.90;;;;;;5030491;28;20045;-43
2024/02/27 10:24:33;;;;;;;21.33;13.85;;;11.70;99.90;;;;;;5032095;28;20038;-44
2024/02/27 10:27:04;;;;;;;18.73;13.48;;;11.70;99.90;;;;;;5030522;28;20129;-43
2024/02/27 10:29:31;;;;;;;21.33;14.25;;;11.60;99.90;;;;;;5032176;28;20045;-48
2024/02/27 10:31:59;;;;;;;19.58;13.85;;;11.60;99.90;;;;;;5033193;28;20061;-46
2024/02/27 10:34:27;;;;;;;20.50;13.63;;;11.60;99.90;;;;;;5031991;28;20548;-43
2024/02/27 10:36:57;;;;;;;18.27;14.23;;;11.60;99.90;;;;;;5031580;28;20107;-45
2024/02/27 10:39:24;;;;;;;18.27;12.15;;;11.60;99.90;;;;;;5029049;28;20037;-41
2024/02/27 10:41:52;;;;;;;17.05;12.32;;;11.70;99.90;;;;;;5030600;28;20536;-45
2024/02/27 10:44:22;;;;;;;17.70;13.10;;;11.80;99.90;;;;;;5028919;28;20129;-44
2024/02/27 10:46:49;;;;;;;20.27;13.43;;;11.80;99.90;;;;;;5035017;28;20057;-42
2024/02/27 10:49:17;;;;;;;18.35;12.57;;;11.70;99.90;;;;;;5015010;28;20437;-47
2024/02/27 10:51:45;;;;;;;16.35;12.15;;;11.70;99.90;;;;;;5032093;28;20092;-43
2024/02/27 10:54:16;;;;;;;25.02;13.50;;;11.80;99.90;;;;;;5038040;28;20057;-47
2024/02/27 10:56:46;;;;;;;20.15;13.57;;;11.80;99.90;;;;;;5036645;28;20053;-48
2024/02/27 10:59:13;;;;;;;18.98;12.95;;;11.80;99.90;;;;;;5030471;28;20042;-44
2024/02/27 11:01:44;;;;;;;18.95;12.65;;;11.90;99.90;;;;;;5038035;28;20105;-49
2024/02/27 11:04:25;;;;;;;17.70;12.65;;;12.00;99.90;;;;;;5033279;28;20060;-49
2024/02/27 11:06:53;;;;;;;18.27;12.10;;;12.10;99.90;;;;;;5029619;28;20084;-42
2024/02/27 11:09:26;;;;;;;17.83;12.32;;;12.30;99.90;;;;;;5029967;28;20053;-46
2024/02/27 11:11:56;;;;;;;27.95;16.13;;;12.40;99.90;;;;;;5030126;28;20060;-43
2024/02/27 11:14:25;;;;;;;19.15;13.32;;;12.50;99.90;;;;;;5030378;28;20057;-49
2024/02/27 11:17:03;;;;;;;19.25;13.30;;;12.60;99.90;;;;;;5031971;28;20471;-42
2024/02/27 11:19:35;;;;;;;19.13;13.60;;;12.70;99.90;;;;;;5032169;28;20044;-43
2024/02/27 11:22:04;;;;;;;16.95;11.77;;;12.70;99.90;;;;;;5031720;28;20084;-44
2024/02/27 11:24:30;;;;;;;18.52;12.90;;;12.80;99.90;;;;;;5029788;28;20049;-45
2024/02/27 11:26:57;;;;;;;19.02;13.27;;;12.80;99.90;;;;;;5036370;28;20052;-48
2024/02/27 11:29:25;;;;;;;16.98;12.88;;;12.90;99.90;;;;;;5033649;28;20037;-44
2024/02/27 11:31:52;;;;;;;17.52;12.55;;;13.00;99.90;;;;;;5030157;28;20052;-45
2024/02/27 11:34:26;;;;;;;17.08;12.07;;;13.10;99.90;;;;;;5027181;28;20605;-43
2024/02/27 11:37:17;;;;;;;16.63;12.45;;;13.30;99.90;;;;;;5026384;28;20057;-45
2024/02/27 11:39:44;;;;;;;15.23;11.30;;;13.30;99.90;;;;;;5027490;28;20046;-47
2024/02/27 11:42:39;;;;;;;18.45;11.77;;;13.30;99.90;;;;;;5029520;28;20029;-41
2024/02/27 11:45:11;;;;;;;15.10;12.25;;;13.40;99.90;;;;;;5029358;28;20085;-46
2024/02/27 11:47:38;;;;;;;;;;;13.40;99.90;;;;;;5034774;28;20038;-48
2024/02/27 11:50:09;;;;;;;18.60;13.38;;;13.40;99.90;;;;;;5033834;28;20049;-48
2024/02/27 11:52:40;;;;;;;18.55;12.85;;;13.30;99.90;;;;;;5037916;28;20113;-47
2024/02/27 11:55:09;;;;;;;16.55;12.57;;;13.20;99.90;;;;;;5033063;28;20056;-43
2024/02/27 11:57:37;;;;;;;15.73;11.93;;;13.20;99.90;;;;;;5028788;28;20277;-47
2024/02/27 12:00:09;;;;;;;21.58;12.23;;;13.10;99.90;;;;;;5029985;28;20037;-47
2024/02/27 12:02:37;;;;;;;16.45;12.32;;;13.00;99.90;;;;;;5029464;28;20048;-44
2024/02/27 12:05:05;;;;;;;17.85;11.95;;;12.90;99.90;;;;;;5031943;28;20054;-43
2024/02/27 12:07:34;;;;;;;17.88;12.05;;;13.00;99.90;;;;;;5034618;28;20061;-46
2024/02/27 12:10:09;;;;;;;20.42;13.05;;;13.00;99.90;;;;;;5018232;28;20518;-41
2024/02/27 12:12:40;;;;;;;16.17;12.60;;;13.00;99.90;;;;;;5028619;28;20475;-44
2024/02/27 12:15:09;;;;;;;18.27;12.70;;;12.90;99.90;;;;;;5030939;28;20056;-46
2024/02/27 12:17:36;;;;;;;14.60;11.13;;;12.80;99.90;;;;;;5028147;28;20480;-44
2024/02/27 12:20:11;;;;;;;17.20;11.80;;;12.80;99.90;;;;;;5029438;28;20088;-42
2024/02/27 12:22:40;;;;;;;14.80;11.20;;;12.80;99.90;;;;;;5029146;28;20076;-46
2024/02/27 12:25:07;;;;;;;17.35;13.00;;;12.90;99.90;;;;;;5029331;28;20041;-42
2024/02/27 12:27:35;;;;;;;21.08;14.90;;;12.90;99.90;;;;;;5027446;28;20105;-46
2024/02/27 12:30:11;;;;;;;18.52;12.95;;;13.00;99.90;;;;;;5027415;28;20709;-44
2024/02/27 12:32:45;;;;;;;18.63;13.82;;;13.10;99.90;;;;;;5028052;28;20205;-44
2024/02/27 12:35:14;;;;;;;16.55;13.38;;;13.00;99.90;;;;;;5025039;28;20438;-48
2024/02/27 12:37:43;;;;;;;15.55;13.20;;;13.10;99.90;;;;;;5028201;28;20080;-46
2024/02/27 12:40:14;;;;;;;18.75;13.63;;;13.20;99.90;;;;;;5026968;28;20542;-45
2024/02/27 12:42:52;;;;;;;19.05;13.18;;;13.30;99.90;;;;;;5024774;28;20042;-44
2024/02/27 12:45:20;;;;;;;17.10;13.57;;;13.50;99.90;;;;;;5028131;28;20052;-48